Time;durP1;ratioP1;P1;durP2;ratioP2;P2;SDS_P1;SDS_P2;PMS_P1;PMS_P2;Temp;Humidity;BMP_temperature;BMP_pressure;BME280_temperature;BME280_humidity;BME280_pressure;Samples;Min_cycle;Max_cycle;Signal;HPM_P1;HPM_P2
2023/08/09 00:33:03;;;;;;;5.15;2.30;;;14.80;99.90;;;;;;5580305;22;15879512;-84
2023/08/09 00:36:18;;;;;;;5.13;2.20;;;14.90;99.90;;;;;;6138624;23;20166;-84
2023/08/09 00:39:44;;;;;;;3.30;2.27;;;14.80;99.90;;;;;;6114705;23;20231;-86
2023/08/09 00:42:34;;;;;;;3.70;2.50;;;14.90;99.90;;;;;;6031451;23;20225;-85
2023/08/09 00:45:31;;;;;;;4.40;2.23;;;14.80;99.90;;;;;;6056806;23;20246;-84
2023/08/09 00:48:12;;;;;;;3.27;2.20;;;14.90;99.90;;;;;;6078010;23;20278;-85
2023/08/09 00:50:53;;;;;;;3.17;2.27;;;14.90;99.90;;;;;;6032373;23;20559;-85
2023/08/09 00:56:54;;;;;;;9.40;3.00;;;14.80;99.90;;;;;;6048287;23;20217;-86
2023/08/09 00:59:47;;;;;;;3.03;2.40;;;14.80;99.90;;;;;;6023944;23;20179;-86
2023/08/09 01:02:43;;;;;;;4.50;2.50;;;14.70;99.90;;;;;;6044600;23;20279;-86
2023/08/09 01:05:54;;;;;;;5.53;2.53;;;14.60;99.90;;;;;;6023616;23;20181;-85
2023/08/09 01:09:13;;;;;;;4.40;2.60;;;14.50;99.90;;;;;;5885392;24;20441;-87
2023/08/09 01:12:07;;;;;;;4.03;2.27;;;14.60;99.90;;;;;;5828898;24;20180;-89
2023/08/09 01:15:16;;;;;;;7.30;3.00;;;14.60;99.90;;;;;;5783564;24;20231;-89
2023/08/09 01:22:40;;;;;;;3.40;2.53;;;14.40;99.90;;;;;;5881847;24;20163;-87
2023/08/09 01:26:00;;;;;;;;;;;;;;;;;;;;;
2023/08/09 01:28:48;;;;;;;3.60;2.23;;;14.30;99.90;;;;;;5748286;24;20185;-89
2023/08/09 01:31:43;;;;;;;4.13;2.30;;;14.50;99.90;;;;;;5818954;24;20227;-87
2023/08/09 01:35:03;;;;;;;8.60;2.80;;;14.40;99.90;;;;;;5896474;24;20643;-89
2023/08/09 01:38:07;;;;;;;3.00;2.10;;;14.50;99.90;;;;;;5880146;24;20220;-87
2023/08/09 01:41:22;;;;;;;4.73;2.37;;;14.40;99.90;;;;;;5902736;24;20210;-87
2023/08/09 01:44:20;;;;;;;3.27;2.30;;;14.50;99.90;;;;;;5879344;24;20205;-87
2023/08/09 01:47:12;;;;;;;2.83;2.20;;;14.60;99.90;;;;;;5907442;24;20174;-88
2023/08/09 01:50:21;;;;;;;4.37;2.20;;;14.60;99.90;;;;;;5996462;23;20172;-88
2023/08/09 01:56:57;;;;;;;4.47;2.30;;;14.70;99.90;;;;;;6277321;22;20209;-87
2023/08/09 02:00:02;;;;;;;4.40;2.47;;;14.70;99.90;;;;;;6248665;23;20163;-88
2023/08/09 02:03:11;;;;;;;3.40;2.20;;;14.60;99.90;;;;;;6130766;23;20256;-88
2023/08/09 02:06:20;;;;;;;3.80;2.70;;;14.50;99.90;;;;;;6137492;23;20259;-88
2023/08/09 02:09:21;;;;;;;5.23;2.40;;;14.60;99.90;;;;;;6139024;23;20247;-87
2023/08/09 02:12:13;;;;;;;4.40;2.40;;;14.50;99.90;;;;;;6158866;23;20168;-88
2023/08/09 02:15:10;;;;;;;2.40;2.20;;;14.50;99.90;;;;;;6159185;23;20175;-87
2023/08/09 02:17:57;;;;;;;4.20;2.40;;;14.50;99.90;;;;;;6133685;23;20194;-87
2023/08/09 02:20:36;;;;;;;2.87;2.17;;;14.50;99.90;;;;;;6110486;23;20676;-87
2023/08/09 02:23:21;;;;;;;2.70;2.00;;;14.50;99.90;;;;;;6106961;23;20192;-87
2023/08/09 02:30:14;;;;;;;4.33;2.27;;;14.40;99.90;;;;;;5959959;24;20178;-89
2023/08/09 02:32:53;;;;;;;3.10;2.10;;;14.40;99.90;;;;;;5916807;24;20693;-88
2023/08/09 02:35:52;;;;;;;4.83;2.30;;;14.40;99.90;;;;;;5962689;24;20631;-87
2023/08/09 02:38:27;;;;;;;3.07;2.20;;;14.40;99.90;;;;;;5985374;23;20207;-87
2023/08/09 02:41:06;;;;;;;3.80;2.23;;;14.40;99.90;;;;;;5968068;23;20198;-87
2023/08/09 02:43:59;;;;;;;5.00;2.60;;;14.30;99.90;;;;;;5989411;23;20199;-88
2023/08/09 02:46:49;;;;;;;4.30;2.20;;;14.20;99.90;;;;;;6015494;23;20516;-87
2023/08/09 02:49:32;;;;;;;3.33;2.40;;;14.30;99.90;;;;;;6134936;23;20199;-87
2023/08/09 02:52:08;;;;;;;4.50;2.27;;;14.20;99.90;;;;;;6132918;23;20186;-87
2023/08/09 02:54:59;;;;;;;3.20;2.30;;;14.30;99.90;;;;;;6132801;23;20176;-86
2023/08/09 02:57:52;;;;;;;13.20;3.97;;;14.30;99.90;;;;;;6131923;23;20235;-86
2023/08/09 03:00:45;;;;;;;3.20;2.10;;;14.30;99.90;;;;;;6179804;23;20187;-86
2023/08/09 03:04:08;;;;;;;2.90;2.13;;;14.20;99.90;;;;;;6123596;23;20461;-86
2023/08/09 03:07:02;;;;;;;3.67;2.00;;;14.10;99.90;;;;;;6068713;23;20181;-87
2023/08/09 03:10:03;;;;;;;4.70;2.50;;;14.10;99.90;;;;;;6049691;23;20621;-86
2023/08/09 03:14:05;;;;;;;;;;;;;;;;;;;;;
2023/08/09 03:17:19;;;;;;;6.07;2.80;;;13.90;99.90;;;;;;5896456;24;20325;-87
2023/08/09 03:24:01;;;;;;;3.47;2.10;;;13.90;99.90;;;;;;5821920;24;20191;-89
2023/08/09 03:26:41;;;;;;;4.93;2.50;;;13.80;99.90;;;;;;5776173;24;20541;-86
2023/08/09 03:29:39;;;;;;;4.50;2.40;;;13.90;99.90;;;;;;5799878;24;20235;-86
2023/08/09 03:32:25;;;;;;;2.47;2.07;;;13.80;99.90;;;;;;5777101;24;20193;-85
2023/08/09 03:34:59;;;;;;;5.07;2.60;;;13.80;99.90;;;;;;5821926;24;20225;-86
2023/08/09 03:37:32;;;;;;;3.07;2.20;;;13.70;99.90;;;;;;5800166;24;20188;-86
2023/08/09 03:40:16;;;;;;;3.67;2.20;;;13.80;99.90;;;;;;5841609;24;20164;-86
2023/08/09 03:42:54;;;;;;;3.50;2.40;;;13.70;99.90;;;;;;5822608;24;20177;-86
2023/08/09 03:45:31;;;;;;;3.10;2.30;;;13.70;99.90;;;;;;5800275;24;20262;-85
2023/08/09 03:48:32;;;;;;;4.37;2.70;;;13.60;99.90;;;;;;5820054;24;20512;-87
2023/08/09 03:52:11;;;;;;;;;;;;;;;;;;;;;
2023/08/09 03:58:17;;;;;;;2.63;2.17;;;13.60;99.90;;;;;;5825770;24;20198;-85
2023/08/09 04:01:11;;;;;;;3.10;2.27;;;13.60;99.90;;;;;;5970334;23;20187;-85
2023/08/09 04:03:44;;;;;;;3.40;2.20;;;13.60;99.90;;;;;;6020268;23;20195;-88
2023/08/09 04:06:40;;;;;;;3.50;2.20;;;13.50;99.90;;;;;;6019781;23;20167;-87
2023/08/09 04:09:57;;;;;;;9.70;2.60;;;13.50;99.90;;;;;;5999106;23;20171;-88
2023/08/09 04:13:10;;;;;;;3.40;2.30;;;13.60;99.90;;;;;;6037189;23;20201;-87
2023/08/09 04:20:03;;;;;;;6.77;3.07;;;13.70;99.90;;;;;;5941587;24;20152;-89
2023/08/09 04:27:36;;;;;;;;;;;;;;;;;;;;;
2023/08/09 04:30:41;;;;;;;5.47;2.67;;;13.70;99.90;;;;;;5943071;24;20171;-89
2023/08/09 04:33:26;;;;;;;4.37;2.50;;;13.70;99.90;;;;;;5881829;24;20211;-88
2023/08/09 04:36:41;;;;;;;3.67;2.83;;;13.70;99.90;;;;;;5879347;24;20188;-89
2023/08/09 04:39:33;;;;;;;4.47;2.50;;;13.70;99.90;;;;;;5929700;24;20174;-88
2023/08/09 04:42:33;;;;;;;3.60;2.40;;;13.70;99.90;;;;;;5991868;23;20199;-87
2023/08/09 04:46:33;;;;;;;;;;;;;;;;;;;;;
2023/08/09 04:50:16;;;;;;;;;;;;;;;;;;;;;
2023/08/09 04:52:54;;;;;;;4.03;2.63;;;13.60;99.90;;;;;;5938024;24;20176;-86
2023/08/09 05:00:06;;;;;;;4.90;2.60;;;13.70;99.90;;;;;;5905949;24;20195;-88
2023/08/09 05:03:07;;;;;;;;;;;;;;;;;;;;;
2023/08/09 05:05:43;;;;;;;5.53;2.83;;;13.90;99.90;;;;;;5932616;24;20221;-89
2023/08/09 05:08:18;;;;;;;6.50;2.43;;;14.00;99.90;;;;;;5913970;24;20323;-88
2023/08/09 05:10:56;;;;;;;5.00;2.80;;;14.00;99.90;;;;;;5936203;24;20293;-87
2023/08/09 05:13:38;;;;;;;4.00;2.60;;;14.00;99.90;;;;;;5935384;24;20187;-88
2023/08/09 05:16:32;;;;;;;3.47;2.60;;;14.10;99.90;;;;;;5973126;23;20157;-89
2023/08/09 05:19:09;;;;;;;5.13;2.50;;;14.20;99.90;;;;;;6058091;23;20192;-88
2023/08/09 05:21:39;;;;;;;4.47;2.50;;;14.30;99.90;;;;;;6076220;23;20273;-85
2023/08/09 05:24:10;;;;;;;3.83;2.30;;;14.50;99.90;;;;;;6100181;23;20567;-87
2023/08/09 05:26:38;;;;;;;5.80;2.53;;;14.60;99.90;;;;;;6076894;23;20197;-86
2023/08/09 05:29:05;;;;;;;5.47;2.30;;;14.60;99.90;;;;;;6104793;23;20193;-88
2023/08/09 05:31:50;;;;;;;3.63;2.27;;;14.60;99.90;;;;;;6042228;23;20175;-89
2023/08/09 05:34:24;;;;;;;2.77;2.30;;;14.60;99.90;;;;;;6043241;23;20213;-87
2023/08/09 05:36:57;;;;;;;4.33;2.17;;;14.70;99.90;;;;;;6106517;23;20183;-89
2023/08/09 05:39:28;;;;;;;4.20;2.33;;;14.80;99.90;;;;;;6135621;23;20175;-87
2023/08/09 05:42:28;;;;;;;3.03;2.10;;;14.80;99.90;;;;;;6158084;23;20188;-88
2023/08/09 05:45:15;;;;;;;5.00;1.97;;;14.90;99.90;;;;;;6110701;23;20193;-88
2023/08/09 05:49:37;;;;;;;3.27;1.80;;;15.00;99.90;;;;;;6139341;23;20172;-89
2023/08/09 05:52:42;;;;;;;4.07;2.17;;;15.20;99.90;;;;;;5984008;23;20176;-88
2023/08/09 05:55:57;;;;;;;3.87;2.03;;;15.10;99.90;;;;;;5980786;24;20208;-85
2023/08/09 05:58:31;;;;;;;2.33;1.97;;;15.40;99.90;;;;;;5964113;24;20199;-84
2023/08/09 06:01:37;;;;;;;2.17;1.73;;;15.50;99.90;;;;;;5944390;24;20263;-89
2023/08/09 06:04:48;;;;;;;3.30;1.83;;;15.50;99.90;;;;;;5969007;24;20242;-88
2023/08/09 06:07:30;;;;;;;10.33;2.67;;;15.60;99.90;;;;;;5940969;24;20308;-88
2023/08/09 06:09:59;;;;;;;4.83;1.80;;;15.70;99.90;;;;;;5986318;24;20167;-88
2023/08/09 06:12:50;;;;;;;3.33;1.80;;;15.70;99.90;;;;;;5944242;24;20542;-90
2023/08/09 06:15:36;;;;;;;4.90;1.87;;;15.70;99.90;;;;;;5942875;24;20456;-88
2023/08/09 06:18:09;;;;;;;2.27;1.60;;;15.80;99.90;;;;;;5987039;23;20271;-87
2023/08/09 11:03:36;;;;;;;4.50;1.80;;;21.80;99.90;;;;;;6259557;22;20205;-88
2023/08/09 11:06:03;;;;;;;3.97;1.90;;;21.90;99.90;;;;;;6279460;22;20544;-87
2023/08/09 11:08:33;;;;;;;3.53;1.97;;;22.30;99.90;;;;;;6280871;22;20185;-86
2023/08/09 11:11:03;;;;;;;3.50;2.00;;;22.10;99.90;;;;;;6281024;22;20169;-86
2023/08/09 11:13:39;;;;;;;6.00;1.80;;;22.50;99.90;;;;;;6280840;22;20259;-87
2023/08/09 11:16:30;;;;;;;7.87;2.10;;;22.90;99.90;;;;;;6280882;22;20170;-87
2023/08/09 11:19:03;;;;;;;4.13;2.00;;;22.50;99.90;;;;;;6255724;22;20268;-87
2023/08/09 11:21:42;;;;;;;3.07;1.77;;;22.30;99.90;;;;;;6256241;22;20216;-89
2023/08/09 11:24:20;;;;;;;5.33;1.87;;;22.30;99.90;;;;;;6280381;22;20166;-86
2023/08/09 11:29:43;;;;;;;3.00;2.25;;;22.20;99.90;;;;;;6241625;22;20429;-86
2023/08/09 11:32:27;;;;;;;2.70;2.00;;;22.40;99.90;;;;;;6225931;22;20191;-85
2023/08/09 11:34:58;;;;;;;4.37;2.10;;;22.10;99.90;;;;;;6251226;22;20170;-87
2023/08/09 11:37:31;;;;;;;4.43;2.10;;;22.00;99.90;;;;;;6250822;22;20387;-84
2023/08/09 11:54:42;;;;;;;5.83;2.20;;;21.00;99.90;;;;;;6238973;22;20209;-89
2023/08/09 12:58:09;;;;;;;3.60;2.40;;;20.90;99.90;;;;;;6229286;22;20212;-86
2023/08/09 13:01:04;;;;;;;5.50;2.30;;;21.00;99.90;;;;;;6232420;22;20189;-87
2023/08/09 13:07:29;;;;;;;12.83;2.90;;;21.30;99.90;;;;;;6208191;22;20212;-87
2023/08/09 13:24:47;;;;;;;6.07;2.70;;;20.60;99.90;;;;;;6246722;22;20209;-89
2023/08/09 13:27:35;;;;;;;13.97;9.30;;;19.90;99.90;;;;;;6255838;22;20552;-87
2023/08/09 13:31:07;;;;;;;4.07;2.70;;;19.30;99.90;;;;;;6232387;22;20169;-88
2023/08/09 13:37:56;;;;;;;5.50;2.83;;;17.90;99.90;;;;;;6146795;23;20180;-80
2023/08/09 13:40:29;;;;;;;5.73;3.20;;;17.60;99.90;;;;;;6157724;23;20192;-80
2023/08/09 13:42:59;;;;;;;4.53;2.70;;;17.30;99.90;;;;;;6157443;23;20214;-81
2023/08/09 13:45:39;;;;;;;6.97;3.13;;;17.00;99.90;;;;;;6157335;23;20156;-81
2023/08/09 13:48:10;;;;;;;6.63;3.20;;;16.90;99.90;;;;;;6132328;23;20509;-81
2023/08/09 13:50:37;;;;;;;5.97;3.23;;;16.80;99.90;;;;;;6132992;23;20607;-79
2023/08/09 13:53:06;;;;;;;7.00;3.70;;;16.80;99.90;;;;;;6132596;23;20534;-79
2023/08/09 13:55:35;;;;;;;8.17;3.70;;;16.70;99.90;;;;;;6132749;23;20168;-79
2023/08/09 13:58:07;;;;;;;5.13;3.20;;;16.50;99.90;;;;;;6132764;23;20208;-80
2023/08/09 14:00:36;;;;;;;5.50;3.17;;;16.40;99.90;;;;;;6132801;23;20202;-81
2023/08/09 14:03:11;;;;;;;8.30;3.20;;;16.30;99.90;;;;;;6156998;23;20579;-81
2023/08/09 14:05:41;;;;;;;5.63;3.33;;;16.10;99.90;;;;;;6157339;23;20171;-81
2023/08/09 14:08:15;;;;;;;6.63;3.90;;;16.10;99.90;;;;;;6132516;23;20242;-81
2023/08/09 14:10:50;;;;;;;6.60;3.60;;;16.00;99.90;;;;;;6133203;23;20642;-81
2023/08/09 14:13:25;;;;;;;11.83;4.33;;;15.70;99.90;;;;;;6132625;23;20203;-82
2023/08/09 14:16:02;;;;;;;8.70;4.43;;;15.80;99.90;;;;;;6198850;23;20214;-81
2023/08/09 14:18:47;;;;;;;8.47;4.60;;;15.70;99.90;;;;;;6195921;23;20182;-80
2023/08/09 14:21:14;;;;;;;7.87;4.80;;;15.80;99.90;;;;;;6223339;23;20425;-81
2023/08/09 14:23:46;;;;;;;6.87;4.30;;;15.80;99.90;;;;;;6224067;23;20461;-80
2023/08/09 14:26:16;;;;;;;8.10;4.20;;;15.80;99.90;;;;;;6223367;23;20529;-81
2023/08/09 14:28:58;;;;;;;5.87;4.07;;;15.80;99.90;;;;;;6225576;23;20178;-80
2023/08/09 14:31:30;;;;;;;10.77;4.90;;;15.70;99.90;;;;;;6249558;23;20475;-80
2023/08/09 14:34:00;;;;;;;7.87;4.40;;;15.60;99.90;;;;;;6249790;22;20190;-80
2023/08/09 14:36:42;;;;;;;6.30;4.60;;;15.80;99.90;;;;;;6249206;23;20154;-85
2023/08/09 14:39:20;;;;;;;5.77;4.10;;;15.80;99.90;;;;;;6221829;23;20200;-81
2023/08/09 14:42:09;;;;;;;5.63;4.17;;;15.80;99.90;;;;;;6225566;22;20182;-80
2023/08/09 14:44:39;;;;;;;7.27;4.57;;;15.80;99.90;;;;;;6197429;23;20163;-81
2023/08/09 14:47:12;;;;;;;4.87;3.80;;;16.00;99.90;;;;;;6223465;22;20266;-79
2023/08/09 14:50:05;;;;;;;8.43;4.20;;;16.00;99.90;;;;;;6223064;23;20174;-82
2023/08/09 14:52:59;;;;;;;6.03;4.17;;;16.10;99.90;;;;;;6227153;23;20240;-78
2023/08/09 14:55:32;;;;;;;5.77;3.73;;;16.20;99.90;;;;;;6224335;23;20397;-81
2023/08/09 14:58:12;;;;;;;9.23;4.30;;;16.30;99.90;;;;;;6219657;23;20196;-79
2023/08/09 15:01:58;;;;;;;;;;;;;;;;;;;;;
2023/08/09 15:04:26;;;;;;;4.83;3.37;;;16.40;99.90;;;;;;6273682;22;20473;-79
2023/08/09 15:10:37;;;;;;;5.63;3.37;;;16.40;99.90;;;;;;6236892;22;20253;-81
2023/08/09 15:42:55;;;;;;;6.93;3.60;;;16.10;99.90;;;;;;6154009;23;20266;-79
2023/08/09 15:46:25;;;;;;;4.20;3.17;;;16.30;99.90;;;;;;6043709;23;20190;-80
2023/08/09 15:49:39;;;;;;;4.70;3.33;;;16.30;99.90;;;;;;5908621;24;20217;-75
2023/08/09 15:52:49;;;;;;;3.77;2.80;;;16.20;99.90;;;;;;5933027;24;20461;-78
2023/08/09 15:59:21;;;;;;;4.03;2.70;;;16.10;99.90;;;;;;6189735;23;20574;-78
2023/08/09 16:02:13;;;;;;;3.77;2.87;;;16.00;99.90;;;;;;6190055;23;20502;-77
2023/08/09 16:05:16;;;;;;;6.53;2.90;;;15.80;99.90;;;;;;6191460;23;20171;-77
2023/08/09 16:08:04;;;;;;;6.03;2.80;;;15.80;99.90;;;;;;6095732;23;20269;-78
2023/08/09 16:10:39;;;;;;;4.90;2.80;;;15.70;99.90;;;;;;6073976;23;20166;-78
2023/08/09 16:13:13;;;;;;;5.80;2.97;;;15.60;99.90;;;;;;6101175;23;20213;-80
2023/08/09 16:16:03;;;;;;;3.63;2.90;;;15.70;99.90;;;;;;6081319;23;20256;-76
2023/08/09 16:18:50;;;;;;;3.47;2.80;;;15.70;99.90;;;;;;6126422;23;20268;-76
2023/08/09 16:21:46;;;;;;;4.83;2.83;;;15.70;99.90;;;;;;6125992;23;20177;-76
2023/08/09 16:24:42;;;;;;;7.37;3.30;;;15.70;99.90;;;;;;6105573;23;20169;-76
2023/08/09 16:27:40;;;;;;;6.53;2.73;;;15.60;99.90;;;;;;6096468;23;20241;-77
2023/08/09 16:31:00;;;;;;;;;;;;;;;;;;;;;
2023/08/09 16:39:22;;;;;;;;;;;;;;;;;;;;;
2023/08/09 16:45:57;;;;;;;5.50;3.90;;;15.60;99.90;;;;;;6250488;22;20592;-81
2023/08/09 16:48:57;;;;;;;7.50;4.10;;;15.60;99.90;;;;;;6134430;23;20370;-78
2023/08/09 16:52:04;;;;;;;6.07;4.20;;;15.60;99.90;;;;;;6247532;22;20225;-83
2023/08/09 16:59:04;;;;;;;5.80;3.90;;;15.70;99.90;;;;;;6227625;22;20202;-79
2023/08/09 17:29:42;;;;;;;3.70;3.20;;;15.80;99.90;;;;;;6245431;23;20205;-83
2023/08/09 17:32:17;;;;;;;5.07;2.80;;;15.80;99.90;;;;;;6251015;23;20456;-83
2023/08/09 17:38:08;;;;;;;;;;;;;;;;;;;;;
2023/08/09 17:52:27;;;;;;;5.17;2.90;;;15.50;99.90;;;;;;6245953;22;20210;-81
2023/08/09 17:55:06;;;;;;;5.13;3.17;;;15.50;99.90;;;;;;6249269;23;20146;-94
2023/08/09 17:57:50;;;;;;;5.37;2.97;;;15.50;99.90;;;;;;6259146;22;20204;-82
2023/08/09 18:00:41;;;;;;;3.63;2.97;;;15.40;99.90;;;;;;6258251;22;20153;-81
2023/08/09 18:03:40;;;;;;;4.97;3.13;;;15.40;99.90;;;;;;6281331;22;20185;-82
2023/08/09 18:06:21;;;;;;;4.50;3.30;;;15.30;99.90;;;;;;6132884;23;20485;-82
2023/08/09 18:09:13;;;;;;;5.77;3.30;;;15.30;99.90;;;;;;6110944;23;20600;-82
2023/08/09 18:12:06;;;;;;;4.10;3.10;;;15.30;99.90;;;;;;6046960;23;20497;-82
2023/08/09 18:15:00;;;;;;;5.30;3.47;;;15.30;99.90;;;;;;6069241;23;20209;-81
2023/08/09 18:18:12;;;;;;;3.97;3.30;;;15.30;99.90;;;;;;6044888;23;20582;-80
2023/08/09 18:20:51;;;;;;;7.80;4.33;;;15.20;99.90;;;;;;5996508;23;20171;-81
2023/08/09 18:23:52;;;;;;;4.87;3.70;;;15.20;99.90;;;;;;6009842;23;20206;-82
2023/08/09 18:26:43;;;;;;;6.70;3.80;;;15.20;99.90;;;;;;6041265;23;20167;-81
2023/08/09 18:29:28;;;;;;;5.23;3.80;;;15.20;99.90;;;;;;6017467;23;20227;-83
2023/08/09 18:32:01;;;;;;;5.10;3.80;;;15.20;99.90;;;;;;6040775;23;20170;-82
2023/08/09 18:34:37;;;;;;;7.00;3.90;;;15.20;99.90;;;;;;6017322;23;20202;-82
2023/08/09 18:37:20;;;;;;;6.60;3.37;;;15.20;99.90;;;;;;6040211;23;20259;-82
2023/08/09 18:40:00;;;;;;;6.07;3.50;;;15.10;99.90;;;;;;6017016;23;20178;-82
2023/08/09 18:42:31;;;;;;;4.63;3.10;;;15.10;99.90;;;;;;6034873;23;20228;-83
2023/08/09 18:45:08;;;;;;;7.17;3.37;;;15.10;99.90;;;;;;6105189;23;20162;-81
2023/08/09 18:47:42;;;;;;;7.57;3.07;;;15.00;99.90;;;;;;6012025;23;20195;-82
2023/08/09 18:50:28;;;;;;;4.47;2.93;;;15.00;99.90;;;;;;6013071;23;20168;-82
2023/08/09 18:53:11;;;;;;;3.90;2.93;;;15.00;99.90;;;;;;5989461;23;20195;-82
2023/08/09 18:55:53;;;;;;;3.53;2.90;;;15.00;99.90;;;;;;6053745;23;20292;-82
2023/08/09 18:58:39;;;;;;;6.47;3.57;;;15.00;99.90;;;;;;6077569;23;20225;-82
2023/08/09 19:01:45;;;;;;;4.77;2.93;;;15.00;99.90;;;;;;6074481;23;20184;-83
2023/08/09 19:04:38;;;;;;;5.10;2.93;;;14.90;99.90;;;;;;6012410;23;20176;-81
2023/08/09 19:07:40;;;;;;;5.10;3.40;;;14.90;99.90;;;;;;6156957;23;20467;-85
2023/08/09 19:10:25;;;;;;;3.97;3.17;;;14.80;99.90;;;;;;6213721;22;20206;-81
2023/08/09 19:13:16;;;;;;;6.00;3.50;;;14.70;99.90;;;;;;6202579;23;20189;-83
2023/08/09 19:15:48;;;;;;;4.20;3.20;;;14.80;99.90;;;;;;6198768;23;20165;-80
2023/08/09 19:18:22;;;;;;;5.40;3.43;;;14.80;99.90;;;;;;6186911;23;20188;-84
2023/08/09 19:21:05;;;;;;;5.17;3.30;;;14.80;99.90;;;;;;6163652;23;20172;-83
2023/08/09 19:24:34;;;;;;;5.53;3.43;;;14.90;99.90;;;;;;6143731;23;20199;-81
2023/08/09 19:27:41;;;;;;;5.20;3.50;;;14.70;99.90;;;;;;6161846;23;20184;-82
2023/08/09 19:30:35;;;;;;;4.27;3.20;;;14.70;99.90;;;;;;6048140;23;20577;-83
2023/08/09 19:33:56;;;;;;;;;;;;;;;;;;;;;
2023/08/09 19:36:59;;;;;;;6.23;3.70;;;14.60;99.90;;;;;;6038222;23;20626;-82
2023/08/09 19:39:57;;;;;;;7.07;3.77;;;14.50;99.90;;;;;;5964488;23;20180;-80
2023/08/09 19:43:14;;;;;;;6.37;3.87;;;14.50;99.90;;;;;;5952024;23;20600;-83
2023/08/09 19:45:54;;;;;;;5.73;3.70;;;14.40;99.90;;;;;;5984380;23;20596;-83
2023/08/09 19:48:39;;;;;;;5.70;3.87;;;14.40;99.90;;;;;;5994648;23;20195;-81
2023/08/09 19:51:14;;;;;;;5.90;3.87;;;14.40;99.90;;;;;;6017396;23;20266;-81
2023/08/09 19:54:00;;;;;;;5.67;4.17;;;14.30;99.90;;;;;;6039116;23;20219;-83
2023/08/09 19:56:45;;;;;;;6.13;4.10;;;14.40;99.90;;;;;;6015646;23;20175;-84
2023/08/09 19:59:24;;;;;;;6.10;4.03;;;14.40;99.90;;;;;;6017263;23;20208;-82
2023/08/09 20:02:21;;;;;;;7.73;4.37;;;14.40;99.90;;;;;;6021977;23;20186;-83
2023/08/09 20:05:10;;;;;;;;;;;;;;;;;;;;;
2023/08/09 20:08:25;;;;;;;5.43;4.00;;;14.30;99.90;;;;;;6074787;23;20464;-83
2023/08/09 20:11:38;;;;;;;6.80;4.70;;;14.30;99.90;;;;;;6071628;23;20201;-82
2023/08/09 20:14:47;;;;;;;6.77;4.60;;;14.40;99.90;;;;;;6105986;23;20165;-83
2023/08/09 20:21:48;;;;;;;5.73;4.73;;;14.30;99.90;;;;;;6126028;23;20253;-82
2023/08/09 20:27:52;;;;;;;7.50;5.57;;;14.30;99.90;;;;;;6125753;23;20199;-81
2023/08/09 20:31:14;;;;;;;6.53;4.90;;;14.30;99.90;;;;;;6102885;23;20170;-82
2023/08/09 20:34:49;;;;;;;6.93;4.90;;;14.30;99.90;;;;;;6038735;23;20166;-81
2023/08/09 20:38:19;;;;;;;;;;;;;;;;;;;;;
2023/08/09 20:44:21;;;;;;;7.73;5.60;;;14.30;99.90;;;;;;6203561;23;20206;-79
2023/08/09 20:47:48;;;;;;;12.40;7.07;;;14.30;99.90;;;;;;6142797;23;20202;-78
2023/08/09 20:51:01;;;;;;;7.90;6.03;;;14.40;99.90;;;;;;6200198;23;20212;-80
2023/08/09 20:53:35;;;;;;;11.17;6.40;;;14.30;99.90;;;;;;6220229;23;20257;-81
2023/08/09 20:56:39;;;;;;;9.80;5.90;;;14.30;99.90;;;;;;6217855;23;20423;-80
2023/08/09 21:03:15;;;;;;;8.77;6.13;;;14.40;99.90;;;;;;6016440;23;20330;-80
2023/08/09 21:05:59;;;;;;;14.13;9.53;;;14.40;99.90;;;;;;6041332;23;20193;-81
2023/08/09 21:09:07;;;;;;;13.03;7.77;;;14.50;99.90;;;;;;5878514;24;20225;-81
2023/08/09 21:12:13;;;;;;;10.60;7.37;;;14.50;99.90;;;;;;5901656;24;20513;-81
2023/08/09 21:15:18;;;;;;;10.40;7.57;;;14.40;99.90;;;;;;5899003;24;20193;-81
2023/08/09 21:18:20;;;;;;;10.60;7.27;;;14.40;99.90;;;;;;5899654;24;20206;-81
2023/08/09 21:22:05;;;;;;;;;;;;;;;;;;;;;
2023/08/09 21:25:06;;;;;;;13.47;8.47;;;14.50;99.90;;;;;;5846109;24;20262;-83
2023/08/09 21:31:20;;;;;;;12.30;8.40;;;14.40;99.90;;;;;;6237997;22;20210;-82
2023/08/09 21:35:21;;;;;;;16.30;8.33;;;14.40;99.90;;;;;;6149683;23;20406;-82
2023/08/09 21:39:12;;;;;;;13.37;8.53;;;14.30;99.90;;;;;;6156469;23;20227;-83
2023/08/09 21:42:49;;;;;;;13.73;7.90;;;14.30;99.90;;;;;;6102051;23;20193;-84
2023/08/09 22:07:37;;;;;;;10.47;7.40;;;14.40;99.90;;;;;;5874169;24;20553;-83
2023/08/09 22:10:49;;;;;;;12.00;7.47;;;14.40;99.90;;;;;;5818193;24;20211;-83
2023/08/09 22:14:24;;;;;;;;;;;;;;;;;;;;;
2023/08/09 22:21:18;;;;;;;12.90;7.70;;;14.40;99.90;;;;;;5901015;24;20191;-84
2023/08/09 22:24:21;;;;;;;10.53;7.27;;;14.40;99.90;;;;;;5875926;24;20641;-83
2023/08/09 22:27:39;;;;;;;10.40;7.70;;;14.40;99.90;;;;;;5922883;24;20165;-82
2023/08/09 22:31:16;;;;;;;;;;;;;;;;;;;;;
2023/08/09 22:38:34;;;;;;;12.27;7.90;;;14.50;99.90;;;;;;4876265;29;20735;-81
2023/08/09 22:41:49;;;;;;;11.67;8.40;;;14.50;99.90;;;;;;4877137;29;20627;-81
2023/08/09 22:45:08;;;;;;;12.10;7.83;;;14.50;99.90;;;;;;4854797;29;20189;-81
2023/08/09 22:48:45;;;;;;;10.97;8.07;;;14.40;99.90;;;;;;4848833;29;20225;-81
2023/08/09 22:52:32;;;;;;;11.83;7.90;;;14.30;99.90;;;;;;4857277;29;20190;-82
2023/08/09 22:55:32;;;;;;;10.97;7.83;;;14.30;99.90;;;;;;4821066;29;20198;-82
2023/08/09 22:58:23;;;;;;;10.53;8.13;;;14.40;99.90;;;;;;4805181;29;20268;-82
2023/08/09 23:01:22;;;;;;;11.30;7.37;;;14.40;99.90;;;;;;4806629;29;20191;-81
2023/08/09 23:04:34;;;;;;;11.60;8.00;;;14.30;99.90;;;;;;4821044;29;20742;-81
2023/08/09 23:08:01;;;;;;;;;;;;;;;;;;;;;
2023/08/09 23:11:28;;;;;;;12.67;8.37;;;14.40;99.90;;;;;;4799671;29;20221;-81
2023/08/09 23:14:44;;;;;;;13.03;8.37;;;14.40;99.90;;;;;;4802103;29;20275;-81
2023/08/09 23:22:22;;;;;;;;;;;;;;;;;;;;;
2023/08/09 23:30:55;;;;;;;11.70;9.00;;;14.20;99.90;;;;;;4806818;29;20282;-81
2023/08/09 23:34:17;;;;;;;11.30;8.87;;;14.10;99.90;;;;;;4814378;29;20291;-81
2023/08/09 23:41:22;;;;;;;12.00;8.80;;;14.00;99.90;;;;;;4787576;29;20208;-82
2023/08/09 23:45:08;;;;;;;13.03;9.07;;;14.10;99.90;;;;;;4786110;30;20248;-81
2023/08/09 23:48:13;;;;;;;12.57;8.67;;;14.10;99.90;;;;;;4714728;30;20219;-82
2023/08/09 23:51:23;;;;;;;19.40;13.83;;;14.00;99.90;;;;;;4722655;30;20234;-81
2023/08/09 23:54:30;;;;;;;20.43;12.60;;;14.00;99.90;;;;;;4772384;29;20224;-81
2023/08/09 23:59:40;;;;;;;21.10;14.87;;;14.00;99.90;;;;;;5880086;22;20647;-82
